Time;durP1;ratioP1;P1;durP2;ratioP2;P2;SDS_P1;SDS_P2;PMS_P1;PMS_P2;Temp;Humidity;BMP_temperature;BMP_pressure;BME280_temperature;BME280_humidity;BME280_pressure;Samples;Min_cycle;Max_cycle;Signal;HPM_P1;HPM_P2
2022/11/05 00:10:00;;;;;;;5.53;3.80;;;;;;;7.11;96.96;101448.66;5072700;28;20079;-82
2022/11/05 00:17:53;;;;;;;8.23;4.68;;;;;;;7.04;96.00;101463.97;5071767;28;20074;-82
2022/11/05 00:20:18;;;;;;;7.53;4.25;;;;;;;6.98;95.85;101469.56;5074870;28;20082;-82
2022/11/05 00:25:29;;;;;;;8.27;4.00;;;;;;;6.93;96.89;101476.00;5072676;28;20040;-82
2022/11/05 00:28:06;;;;;;;7.22;3.92;;;;;;;6.91;97.05;101476.13;5071095;28;20032;-83
2022/11/05 00:30:31;;;;;;;5.30;3.97;;;;;;;6.89;96.93;101470.03;5050554;28;20115;-82
2022/11/05 00:33:02;;;;;;;6.60;3.90;;;;;;;6.83;96.69;101479.13;5072929;28;20112;-82
2022/11/05 00:35:27;;;;;;;7.10;4.20;;;;;;;6.80;96.46;101484.56;5072149;28;20027;-82
2022/11/05 00:37:53;;;;;;;4.45;3.85;;;;;;;6.76;96.39;101490.94;5071569;28;20391;-82
2022/11/05 00:40:18;;;;;;;5.88;3.63;;;;;;;6.76;96.23;101498.88;5070265;28;20078;-82
2022/11/05 00:45:29;;;;;;;5.45;3.80;;;;;;;6.63;96.05;101497.78;5075006;28;20031;-82
2022/11/05 00:50:59;;;;;;;5.07;3.80;;;;;;;6.50;95.31;101505.44;4987871;28;20046;-82
2022/11/05 00:53:24;;;;;;;4.55;3.58;;;;;;;6.51;96.01;101511.53;4989195;28;20089;-82
2022/11/05 00:55:49;;;;;;;8.95;4.57;;;;;;;6.47;95.74;101518.75;5022955;28;20038;-82
2022/11/05 00:58:19;;;;;;;10.70;4.35;;;;;;;6.32;96.22;101506.31;5055715;28;20419;-82
2022/11/05 01:00:58;;;;;;;6.00;3.97;;;;;;;6.41;96.75;101519.94;5045022;28;20115;-82
2022/11/05 01:03:30;;;;;;;5.93;4.32;;;;;;;6.36;96.49;101519.31;5026887;28;20017;-82
2022/11/05 01:05:58;;;;;;;18.90;9.77;;;;;;;6.33;96.44;101514.16;5050504;28;20052;-82
2022/11/05 01:08:26;;;;;;;30.73;16.75;;;;;;;6.24;96.55;101515.44;5052094;28;20043;-82
2022/11/05 01:10:59;;;;;;;21.58;14.23;;;;;;;6.26;96.18;101529.44;5050029;28;20046;-82
2022/11/05 01:13:37;;;;;;;16.15;10.55;;;;;;;6.22;95.98;101527.00;5054623;28;20032;-82
2022/11/05 01:16:07;;;;;;;15.05;9.48;;;;;;;6.17;96.46;101531.66;5055562;28;20033;-83
2022/11/05 01:18:35;;;;;;;13.73;7.65;;;;;;;6.15;96.49;101533.50;5055431;28;20017;-82
2022/11/05 01:21:09;;;;;;;10.95;6.50;;;;;;;6.12;96.75;101539.78;5053731;28;20083;-82
2022/11/05 01:23:34;;;;;;;9.70;5.47;;;;;;;6.07;96.16;101541.78;5037792;28;20052;-82
2022/11/05 01:25:59;;;;;;;7.07;4.30;;;;;;;6.05;96.49;101555.03;5054539;28;20017;-82
2022/11/05 01:28:25;;;;;;;6.32;4.40;;;;;;;6.03;96.75;101554.25;5054007;28;20029;-82
2022/11/05 01:30:55;;;;;;;4.75;3.90;;;;;;;5.93;97.15;101552.94;5058834;28;20491;-82
2022/11/05 01:33:20;;;;;;;;;;;;;;;6.07;96.15;101560.22;5055915;28;20029;-82
2022/11/05 01:35:45;;;;;;;6.23;3.80;;;;;;;5.90;97.20;101547.78;5055396;28;19913;-82
2022/11/05 01:38:10;;;;;;;8.20;3.83;;;;;;;5.90;97.28;101550.44;5053623;28;20082;-81
2022/11/05 01:40:36;;;;;;;4.40;4.00;;;;;;;5.85;97.72;101549.78;5055241;28;20419;-82
2022/11/05 01:43:01;;;;;;;6.53;3.85;;;;;;;5.87;97.21;101561.09;5051240;28;20040;-82
2022/11/05 01:45:27;;;;;;;5.47;3.63;;;;;;;5.82;97.27;101549.91;5048465;28;20567;-82
2022/11/05 01:48:16;;;;;;;4.75;4.03;;;;;;;5.85;97.29;101557.69;5051964;28;20083;-81
2022/11/05 01:50:43;;;;;;;6.03;3.85;;;;;;;5.82;97.05;101560.47;5067019;28;20043;-82
2022/11/05 01:53:38;;;;;;;5.63;4.00;;;;;;;5.81;97.44;101558.75;5069105;28;20386;-82
2022/11/05 01:56:31;;;;;;;7.97;3.47;;;;;;;5.79;97.58;101560.59;5041669;28;20050;-82
2022/11/05 01:59:02;;;;;;;7.55;4.00;;;;;;;5.72;97.14;101550.31;5056475;28;20052;-82
2022/11/05 02:01:28;;;;;;;7.50;4.55;;;;;;;5.72;97.48;101554.75;5051175;28;20135;-82
2022/11/05 02:03:58;;;;;;;6.68;4.07;;;;;;;5.70;98.11;101549.53;5049986;28;20079;-82
2022/11/05 02:06:26;;;;;;;6.68;4.10;;;;;;;5.68;97.55;101543.50;5058104;28;20025;-82
2022/11/05 02:09:14;;;;;;;11.70;4.57;;;;;;;5.64;98.24;101541.91;5054824;28;20036;-82
2022/11/05 02:11:39;;;;;;;7.53;4.50;;;;;;;5.55;97.94;101531.78;5066684;28;20025;-82
2022/11/05 02:14:04;;;;;;;11.73;4.75;;;;;;;5.59;98.11;101543.88;5047894;28;20040;-82
2022/11/05 02:17:02;;;;;;;9.55;4.72;;;;;;;5.62;98.81;101540.28;5047684;28;20018;-82
2022/11/05 02:19:33;;;;;;;10.50;5.22;;;;;;;5.55;97.93;101547.59;5050701;28;20057;-82
2022/11/05 02:22:14;;;;;;;10.55;5.35;;;;;;;5.51;98.84;101541.63;5035007;28;20490;-82
2022/11/05 02:25:16;;;;;;;9.00;5.00;;;;;;;5.52;98.71;101545.94;5053091;28;20025;-82
2022/11/05 02:28:03;;;;;;;7.30;5.20;;;;;;;5.51;98.73;101551.28;5052627;28;20052;-82
2022/11/05 02:30:45;;;;;;;9.65;6.10;;;;;;;5.45;98.96;101546.28;5051649;28;20029;-82
2022/11/05 02:33:16;;;;;;;9.77;5.82;;;;;;;5.44;98.72;101539.31;5053897;28;20029;-82
2022/11/05 02:36:17;;;;;;;10.70;5.60;;;;;;;5.44;99.23;101532.25;5053021;28;20044;-82
2022/11/05 02:39:05;;;;;;;7.70;5.18;;;;;;;5.42;98.98;101541.16;5049008;28;20453;-82
2022/11/05 02:41:44;;;;;;;8.05;4.95;;;;;;;5.36;98.94;101537.88;5060490;28;20067;-82
2022/11/05 02:44:25;;;;;;;9.77;5.85;;;;;;;5.37;99.51;101536.94;5054118;28;20032;-82
2022/11/05 02:47:12;;;;;;;7.45;5.70;;;;;;;5.33;99.24;101535.38;5051810;28;20031;-81
2022/11/05 02:49:45;;;;;;;9.90;6.40;;;;;;;5.33;99.23;101543.28;5048546;28;20087;-82
2022/11/05 02:52:46;;;;;;;11.85;6.25;;;;;;;5.33;99.29;101543.28;5067237;28;20020;-82
2022/11/05 02:55:23;;;;;;;8.50;5.97;;;;;;;5.31;99.37;101545.13;5049946;28;20031;-82
2022/11/05 02:57:49;;;;;;;11.63;6.85;;;;;;;5.24;99.22;101541.00;5068516;28;20028;-82
2022/11/05 03:00:42;;;;;;;9.57;5.90;;;;;;;5.25;99.50;101542.75;5072982;28;20020;-82
2022/11/05 03:03:20;;;;;;;14.45;5.88;;;;;;;5.19;99.29;101533.31;5054948;28;20020;-82
2022/11/05 03:05:54;;;;;;;9.98;6.68;;;;;;;5.18;99.22;101538.66;5075102;28;20024;-81
2022/11/05 03:08:42;;;;;;;11.75;6.45;;;;;;;5.10;99.63;101525.81;5067276;28;20033;-82
2022/11/05 03:11:23;;;;;;;11.13;6.72;;;;;;;5.05;99.52;101521.69;5071389;28;20478;-82
2022/11/05 03:14:11;;;;;;;12.13;6.88;;;;;;;5.12;99.45;101537.13;5054047;28;20032;-82
2022/11/05 03:16:39;;;;;;;16.08;6.70;;;;;;;5.08;99.20;101534.69;5072784;28;20054;-82
2022/11/05 03:19:28;;;;;;;10.10;7.05;;;;;;;5.06;99.47;101534.75;5070274;28;20025;-82
2022/11/05 03:22:18;;;;;;;11.70;7.20;;;;;;;5.08;99.83;101534.69;5059381;28;20083;-82
2022/11/05 03:24:56;;;;;;;10.75;7.00;;;;;;;5.03;99.56;101536.66;5072639;28;20025;-81
2022/11/05 03:27:27;;;;;;;11.48;8.15;;;;;;;4.98;99.71;101534.25;5069150;28;20386;-82
2022/11/05 03:29:59;;;;;;;17.20;8.32;;;;;;;4.99;100.00;101539.41;5075601;28;20356;-81
2022/11/05 03:32:28;;;;;;;15.18;7.40;;;;;;;4.99;100.00;101541.22;5075284;28;20074;-82
2022/11/05 03:35:03;;;;;;;12.23;7.97;;;;;;;4.96;100.00;101544.84;5071191;28;20028;-81
2022/11/05 03:37:32;;;;;;;14.35;8.18;;;;;;;4.93;100.00;101547.59;5074811;28;20074;-81
2022/11/05 03:40:01;;;;;;;12.77;8.25;;;;;;;4.86;100.00;101535.59;5073019;28;20082;-82
2022/11/05 03:42:31;;;;;;;12.82;9.30;;;;;;;4.91;100.00;101545.94;5069799;28;20032;-82
2022/11/05 03:45:01;;;;;;;14.73;7.95;;;;;;;4.90;100.00;101550.34;5058095;28;20032;-82
2022/11/05 03:47:32;;;;;;;14.10;8.85;;;;;;;4.88;100.00;101540.78;5072707;28;20054;-81
2022/11/05 03:50:37;;;;;;;14.68;8.70;;;;;;;4.93;100.00;101546.72;5064526;28;20056;-82
2022/11/05 03:53:10;;;;;;;16.08;8.90;;;;;;;4.85;100.00;101543.56;4990465;28;20042;-81
2022/11/05 03:55:45;;;;;;;12.25;8.75;;;;;;;4.85;100.00;101554.97;5059611;28;20036;-81
2022/11/05 03:58:11;;;;;;;14.70;9.32;;;;;;;4.78;100.00;101537.69;5059758;28;20037;-82
2022/11/05 04:00:37;;;;;;;17.30;9.63;;;;;;;4.82;100.00;101549.81;5060337;28;20077;-81
2022/11/05 04:03:02;;;;;;;14.20;9.32;;;;;;;4.82;100.00;101549.81;5064914;28;20029;-83
2022/11/05 04:05:28;;;;;;;14.95;9.63;;;;;;;4.79;100.00;101550.78;5055503;28;20563;-82
2022/11/05 04:13:24;;;;;;;17.80;10.07;;;;;;;4.76;100.00;101557.94;5069966;28;20505;-82
2022/11/05 04:18:54;;;;;;;14.95;9.38;;;;;;;4.74;100.00;101565.06;4971322;28;20053;-82
2022/11/05 04:24:09;;;;;;;15.50;9.45;;;;;;;4.73;100.00;101573.84;5027103;28;20101;-82
2022/11/05 04:26:36;;;;;;;17.80;9.70;;;;;;;4.69;100.00;101570.50;5071220;28;20028;-82
2022/11/05 04:31:46;;;;;;;17.02;10.27;;;;;;;4.69;100.00;101572.28;5070488;28;20513;-82
2022/11/05 04:34:11;;;;;;;14.30;10.50;;;;;;;4.62;100.00;101563.78;5061709;28;20029;-82
2022/11/05 04:36:36;;;;;;;14.40;10.30;;;;;;;4.60;100.00;101566.47;5061068;28;20025;-82
2022/11/05 04:39:02;;;;;;;15.50;9.70;;;;;;;4.61;100.00;101573.47;5070093;28;20020;-81
2022/11/05 04:41:27;;;;;;;12.27;9.43;;;;;;;4.61;100.00;101572.56;5071084;28;20453;-82
2022/11/05 04:43:52;;;;;;;14.65;10.20;;;;;;;4.63;100.00;101574.25;5053612;28;20054;-81
2022/11/05 04:46:17;;;;;;;15.18;10.40;;;;;;;4.57;100.00;101569.22;5071494;28;20467;-82
2022/11/05 04:48:43;;;;;;;16.52;10.02;;;;;;;4.60;100.00;101570.88;5059357;28;20053;-82
2022/11/05 04:51:08;;;;;;;15.23;10.27;;;;;;;4.58;100.00;101581.47;5075620;28;20025;-81
2022/11/05 04:53:34;;;;;;;15.35;10.73;;;;;;;4.57;100.00;101578.91;5062208;28;20021;-82
2022/11/05 04:56:16;;;;;;;16.08;10.40;;;;;;;4.51;100.00;101573.88;5075518;28;20032;-81
2022/11/05 04:58:42;;;;;;;16.15;9.95;;;;;;;4.52;100.00;101580.84;5062885;28;20099;-81
2022/11/05 05:01:34;;;;;;;16.17;10.68;;;;;;;4.58;100.00;101588.47;5076249;28;20154;-81
2022/11/05 05:03:59;;;;;;;14.90;9.57;;;;;;;4.54;100.00;101586.91;5062339;28;20048;-82
2022/11/05 05:06:24;;;;;;;13.60;10.35;;;;;;;4.51;100.00;101587.03;5073243;28;20420;-81
2022/11/05 05:08:50;;;;;;;13.82;10.35;;;;;;;4.56;100.00;101590.31;5070370;28;20479;-82
2022/11/05 05:11:18;;;;;;;17.30;10.68;;;;;;;4.53;100.00;101590.44;5068706;28;20385;-81
2022/11/05 05:13:44;;;;;;;17.27;11.55;;;;;;;4.48;100.00;101577.50;5070449;28;20372;-81
2022/11/05 05:16:29;;;;;;;15.85;11.57;;;;;;;4.58;100.00;101593.75;5052413;28;20054;-81
2022/11/05 05:18:54;;;;;;;14.48;10.77;;;;;;;4.57;100.00;101594.69;5068020;28;20399;-82
2022/11/05 05:21:40;;;;;;;16.55;11.32;;;;;;;4.56;100.00;101595.59;5071428;28;20028;-82
2022/11/05 05:24:08;;;;;;;16.33;11.27;;;;;;;4.54;100.00;101592.16;5069771;28;20360;-81
2022/11/05 05:26:35;;;;;;;18.25;11.27;;;;;;;4.54;100.00;101597.44;5063882;28;20035;-82
2022/11/05 05:29:00;;;;;;;18.95;11.23;;;;;;;4.52;100.00;101602.75;5064824;28;20027;-82
2022/11/05 05:31:25;;;;;;;17.73;10.50;;;;;;;4.53;100.00;101600.97;5072754;28;20446;-82
2022/11/05 05:33:54;;;;;;;19.35;10.75;;;;;;;4.53;100.00;101612.38;5064093;28;20029;-81
2022/11/05 05:36:21;;;;;;;16.33;11.23;;;;;;;4.50;100.00;101599.31;5067692;28;20032;-82
2022/11/05 05:38:46;;;;;;;19.65;11.43;;;;;;;4.45;100.00;101596.88;5073898;28;20295;-82
2022/11/05 05:41:12;;;;;;;17.85;10.65;;;;;;;4.50;100.00;101609.00;5055421;28;20086;-82
2022/11/05 05:43:37;;;;;;;15.48;10.98;;;;;;;4.50;100.00;101607.22;5068907;28;20748;-82
2022/11/05 05:46:03;;;;;;;17.10;9.88;;;;;;;4.42;100.00;101599.63;5074802;28;20054;-82
2022/11/05 05:48:29;;;;;;;14.25;10.30;;;;;;;4.44;100.00;101603.03;5070391;28;20056;-82
2022/11/05 05:51:01;;;;;;;13.68;10.30;;;;;;;4.43;100.00;101601.34;5064837;28;20472;-82
2022/11/05 05:53:27;;;;;;;15.00;10.38;;;;;;;4.48;100.00;101610.81;5063498;28;20037;-82
2022/11/05 05:55:54;;;;;;;15.75;10.55;;;;;;;4.46;100.00;101618.75;5067848;28;20383;-82
2022/11/05 05:58:19;;;;;;;17.10;10.60;;;;;;;4.44;100.00;101610.06;5056976;28;20211;-82
2022/11/05 06:00:45;;;;;;;17.08;10.52;;;;;;;4.40;100.00;101603.25;5075375;28;20447;-82
2022/11/05 06:03:10;;;;;;;15.80;10.07;;;;;;;4.45;100.00;101617.91;5060572;28;20164;-82
2022/11/05 06:05:35;;;;;;;16.45;10.25;;;;;;;4.45;100.00;101619.69;5066105;28;20209;-82
2022/11/05 06:08:00;;;;;;;17.33;10.63;;;;;;;4.42;100.00;101604.88;5060471;28;20028;-82
2022/11/05 06:10:26;;;;;;;17.33;10.63;;;;;;;4.40;100.00;101611.97;5065459;28;20395;-82
2022/11/05 06:12:51;;;;;;;14.45;10.68;;;;;;;4.40;100.00;101617.22;5071091;28;20028;-82
2022/11/05 06:15:16;;;;;;;14.40;9.75;;;;;;;4.35;100.00;101606.03;5072415;28;20036;-82
2022/11/05 06:17:43;;;;;;;13.82;10.00;;;;;;;4.37;100.00;101613.88;5042858;28;20020;-82
2022/11/05 06:20:09;;;;;;;14.50;10.23;;;;;;;4.38;100.00;101619.06;5064376;28;20479;-82
2022/11/05 06:22:35;;;;;;;18.23;10.18;;;;;;;4.35;100.00;101611.28;5068839;28;20059;-81
2022/11/05 06:25:00;;;;;;;11.63;9.68;;;;;;;4.36;100.00;101623.50;5071519;28;20036;-82
2022/11/05 06:27:27;;;;;;;14.23;9.93;;;;;;;4.34;100.00;101625.34;5070354;28;20091;-81
2022/11/05 06:29:52;;;;;;;14.30;9.75;;;;;;;4.33;100.00;101626.28;5054953;28;20036;-81
2022/11/05 06:32:18;;;;;;;16.48;9.75;;;;;;;4.35;100.00;101628.84;5071742;28;20039;-81
2022/11/05 06:34:46;;;;;;;12.57;9.77;;;;;;;4.31;100.00;101625.47;5075048;28;20059;-81
2022/11/05 06:37:11;;;;;;;12.38;9.30;;;;;;;4.29;100.00;101619.41;5075233;28;20029;-81
2022/11/05 06:39:36;;;;;;;13.30;9.55;;;;;;;4.32;100.00;101628.97;5073134;28;20107;-82
2022/11/05 06:42:02;;;;;;;14.55;9.45;;;;;;;4.28;100.00;101624.72;5062564;28;20060;-81
2022/11/05 06:44:27;;;;;;;13.23;9.77;;;;;;;4.29;100.00;101627.28;5065877;28;20036;-81
2022/11/05 06:46:52;;;;;;;14.93;9.65;;;;;;;4.29;100.00;101626.44;5063652;28;20028;-81
2022/11/05 06:49:18;;;;;;;15.00;9.15;;;;;;;4.33;100.00;101635.94;5053693;28;20369;-81
2022/11/05 06:51:43;;;;;;;15.63;9.32;;;;;;;4.30;100.00;101629.03;5061153;28;20033;-81
2022/11/05 06:54:08;;;;;;;12.77;9.25;;;;;;;4.32;100.00;101636.84;5061084;28;20387;-82
2022/11/05 06:56:34;;;;;;;16.25;9.32;;;;;;;4.29;100.00;101631.72;5072200;28;20070;-82
2022/11/05 06:58:59;;;;;;;12.88;9.30;;;;;;;4.27;100.00;101634.41;5074686;28;20025;-82
2022/11/05 07:01:24;;;;;;;12.68;9.88;;;;;;;4.28;100.00;101640.50;5058983;28;20025;-81
2022/11/05 07:03:50;;;;;;;13.10;9.38;;;;;;;4.26;100.00;101646.69;5054728;28;20032;-81
2022/11/05 07:06:15;;;;;;;15.18;9.45;;;;;;;4.26;100.00;101651.06;5068851;28;20031;-82
2022/11/05 07:08:41;;;;;;;15.82;8.50;;;;;;;4.24;100.00;101647.66;5066610;28;20367;-82
2022/11/05 07:11:06;;;;;;;15.32;9.32;;;;;;;4.23;100.00;101645.94;5071729;28;20021;-82
2022/11/05 07:13:32;;;;;;;17.48;9.95;;;;;;;4.24;100.00;101650.28;5067234;28;20029;-82
2022/11/05 07:15:57;;;;;;;13.80;9.50;;;;;;;4.27;100.00;101655.44;5062235;28;20025;-82
2022/11/05 07:18:22;;;;;;;15.35;10.32;;;;;;;4.28;100.00;101658.91;5069459;28;20089;-82
2022/11/05 07:20:48;;;;;;;13.50;9.93;;;;;;;4.26;100.00;101651.97;5061072;28;20056;-82
2022/11/05 07:23:14;;;;;;;17.05;10.02;;;;;;;4.27;100.00;101655.44;5075463;28;20024;-82
2022/11/05 07:25:41;;;;;;;14.13;10.18;;;;;;;4.30;100.00;101662.34;5068122;28;20468;-82
2022/11/05 07:28:08;;;;;;;16.23;10.15;;;;;;;4.29;100.00;101656.22;5070567;28;20044;-83
2022/11/05 07:30:36;;;;;;;14.55;10.48;;;;;;;4.33;100.00;101663.09;5064453;28;20039;-82
2022/11/05 07:33:07;;;;;;;15.15;10.45;;;;;;;4.31;100.00;101654.38;5070650;28;20028;-82
2022/11/05 07:35:32;;;;;;;18.08;10.88;;;;;;;4.33;100.00;101654.34;5069879;28;20040;-82
2022/11/05 07:37:57;;;;;;;18.17;10.82;;;;;;;4.38;100.00;101666.41;5066568;28;20040;-82
2022/11/05 07:40:25;;;;;;;13.95;10.82;;;;;;;4.39;100.00;101665.47;5061363;28;20032;-83
2022/11/05 07:42:54;;;;;;;17.38;11.52;;;;;;;4.25;100.00;101654.63;5050799;28;20467;-82
2022/11/05 07:45:20;;;;;;;14.00;10.82;;;;;;;4.44;100.00;101679.31;5074563;28;20036;-82
2022/11/05 07:47:59;;;;;;;23.00;11.60;;;;;;;4.50;100.00;101683.50;5076571;28;20026;-82
2022/11/05 07:50:26;;;;;;;;;;;;;;;4.57;100.00;101682.34;5086486;28;20048;-82
2022/11/05 07:52:58;;;;;;;19.15;11.25;;;;;;;4.60;100.00;101686.66;5075333;28;19927;-83
2022/11/05 07:55:23;;;;;;;18.98;11.85;;;;;;;4.62;100.00;101682.19;5077177;28;20041;-82
2022/11/05 07:57:51;;;;;;;16.60;11.75;;;;;;;4.68;100.00;101687.22;5088859;28;20077;-83
2022/11/05 08:00:19;;;;;;;18.52;13.98;;;;;;;4.76;100.00;101685.16;5081264;28;20438;-83
2022/11/05 08:03:02;;;;;;;19.55;12.23;;;;;;;4.85;100.00;101685.72;5081316;28;20025;-83
2022/11/05 08:05:48;;;;;;;;;;;;;;;;;;;;;
2022/11/05 08:08:16;;;;;;;21.55;12.63;;;;;;;5.00;100.00;101680.69;5072953;28;20124;-82
2022/11/05 08:10:42;;;;;;;20.08;13.43;;;;;;;5.07;100.00;101683.09;5074197;28;20033;-83
2022/11/05 08:13:08;;;;;;;19.98;12.52;;;;;;;5.17;100.00;101682.63;5072612;28;20099;-82
2022/11/05 08:15:36;;;;;;;16.08;12.43;;;;;;;5.21;100.00;101671.97;5071359;28;20455;-83
2022/11/05 08:18:11;;;;;;;23.77;13.55;;;;;;;5.29;100.00;101676.00;5065434;28;20936;-82
2022/11/05 08:20:51;;;;;;;21.70;13.52;;;;;;;5.38;100.00;101680.91;5083413;28;20047;-82
2022/11/05 08:23:16;;;;;;;20.60;12.57;;;;;;;5.48;100.00;101684.03;5060751;28;20036;-82
2022/11/05 08:25:41;;;;;;;21.63;12.13;;;;;;;5.54;100.00;101682.91;5071528;28;20080;-82
2022/11/05 08:28:10;;;;;;;19.70;13.15;;;;;;;5.56;100.00;101679.28;5081643;28;20031;-82
2022/11/05 08:30:36;;;;;;;18.00;12.95;;;;;;;5.64;100.00;101675.47;5061763;28;20041;-82
2022/11/05 08:33:07;;;;;;;15.63;12.55;;;;;;;5.67;100.00;101673.53;5073244;28;20027;-82
2022/11/05 08:35:34;;;;;;;22.10;13.35;;;;;;;5.73;100.00;101672.44;5082819;28;20037;-83
2022/11/05 08:38:02;;;;;;;18.98;12.90;;;;;;;5.77;100.00;101678.44;5077176;28;20117;-82
2022/11/05 08:40:29;;;;;;;20.52;13.23;;;;;;;5.67;100.00;101644.56;5056434;28;20040;-83
2022/11/05 08:43:13;;;;;;;;;;;;;;;;;;;;;
2022/11/05 08:45:40;;;;;;;17.65;12.60;;;;;;;5.98;100.00;101679.28;5050339;28;20048;-83
2022/11/05 08:48:14;;;;;;;22.83;13.90;;;;;;;6.06;100.00;101677.19;5071180;28;20020;-82
2022/11/05 08:50:39;;;;;;;22.38;13.32;;;;;;;6.19;100.00;101682.78;5111263;22;20101;-49
2022/11/05 08:53:05;;;;;;;20.17;12.48;;;;;;;6.28;100.00;101685.00;5111238;28;20027;-50
2022/11/05 08:55:31;;;;;;;18.23;12.00;;;;;;;6.36;100.00;101680.25;5110866;28;20447;-49
2022/11/05 08:58:15;;;;;;;18.15;12.70;;;;;;;6.49;100.00;101680.53;5098453;28;20538;-55
2022/11/05 09:00:43;;;;;;;19.50;12.63;;;;;;;6.65;100.00;101685.97;5102029;28;20382;-50
2022/11/05 09:03:09;;;;;;;18.38;12.25;;;;;;;6.78;100.00;101683.59;5100120;28;20035;-48
2022/11/05 09:05:36;;;;;;;18.20;12.55;;;;;;;6.97;100.00;101684.41;5107920;28;20016;-52
2022/11/05 09:08:10;;;;;;;18.20;11.73;;;;;;;7.08;100.00;101676.00;5109351;28;20096;-51
2022/11/05 09:10:35;;;;;;;19.95;11.77;;;;;;;7.27;100.00;101683.03;5110837;28;20023;-51
2022/11/05 09:13:01;;;;;;;16.50;11.73;;;;;;;7.43;100.00;101685.75;5104172;28;20036;-52
2022/11/05 09:15:27;;;;;;;20.70;12.63;;;;;;;7.62;100.00;101690.97;5103330;28;20030;-49
2022/11/05 09:17:54;;;;;;;15.48;10.73;;;;;;;7.76;100.00;101683.19;5102480;28;20020;-48
2022/11/05 09:20:19;;;;;;;16.02;10.05;;;;;;;7.94;100.00;101682.25;5110717;28;20028;-51
2022/11/05 09:22:45;;;;;;;14.90;10.30;;;;;;;8.13;100.00;101679.47;5100475;28;20474;-50
2022/11/05 09:25:11;;;;;;;15.05;9.02;;;;;;;8.21;98.42;101678.22;5109498;28;20027;-49
2022/11/05 09:27:36;;;;;;;16.65;9.98;;;;;;;8.40;98.95;101681.59;5108759;28;20027;-53
2022/11/05 09:30:02;;;;;;;12.48;8.82;;;;;;;8.46;96.90;101676.00;5109641;28;20389;-50
2022/11/05 09:32:27;;;;;;;17.23;9.40;;;;;;;8.67;97.73;101673.94;5109949;28;20028;-53
2022/11/05 09:34:52;;;;;;;16.33;9.55;;;;;;;8.79;97.81;101680.38;5092224;28;20040;-52
2022/11/05 09:37:17;;;;;;;15.07;9.85;;;;;;;9.00;97.36;101683.63;5111145;28;20350;-50
2022/11/05 09:39:43;;;;;;;14.40;8.88;;;;;;;9.07;95.53;101686.78;5112197;28;20067;-50
2022/11/05 09:42:11;;;;;;;13.55;8.50;;;;;;;9.22;95.50;101690.34;5109588;28;20028;-52
2022/11/05 09:44:44;;;;;;;12.13;8.20;;;;;;;9.31;94.47;101681.00;5093337;28;20039;-52
2022/11/05 09:47:18;;;;;;;13.10;8.15;;;;;;;9.44;93.08;101688.16;5112243;28;20049;-51
2022/11/05 09:49:49;;;;;;;11.02;7.55;;;;;;;9.53;91.99;101677.97;5110197;28;20036;-54
2022/11/05 09:52:21;;;;;;;12.32;6.93;;;;;;;9.66;90.55;101689.56;5108303;28;20027;-51
2022/11/05 09:54:49;;;;;;;11.52;6.90;;;;;;;9.82;91.71;101682.41;5110778;28;20464;-53
2022/11/05 09:57:18;;;;;;;12.02;7.20;;;;;;;10.03;90.76;101695.31;5110906;28;20026;-51
2022/11/05 09:59:45;;;;;;;;;;;;;;;10.09;93.31;101694.94;5110937;28;20104;-53
2022/11/05 10:02:17;;;;;;;11.27;6.85;;;;;;;10.10;88.86;101704.59;5107650;28;19908;-54
2022/11/05 10:04:45;;;;;;;12.23;7.22;;;;;;;10.11;87.52;101698.34;5108778;28;20385;-52
2022/11/05 10:07:17;;;;;;;12.37;7.30;;;;;;;10.13;88.82;101711.53;5107679;27;20126;-54
2022/11/05 10:09:47;;;;;;;11.73;6.70;;;;;;;10.08;86.59;101713.63;5109930;28;20390;-53
2022/11/05 10:12:38;;;;;;;11.23;7.15;;;;;;;10.09;87.98;101718.84;5108673;28;20102;-55
2022/11/05 10:15:11;;;;;;;10.65;6.25;;;;;;;10.08;87.13;101713.63;5111410;27;20388;-51
2022/11/05 10:17:40;;;;;;;15.95;7.30;;;;;;;10.08;86.51;101722.44;5111629;27;20034;-54
2022/11/05 10:20:17;;;;;;;15.07;6.80;;;;;;;10.08;86.13;101725.06;5109487;27;20540;-53
2022/11/05 10:22:42;;;;;;;11.70;6.70;;;;;;;10.11;86.26;101737.31;5093281;27;20015;-53
2022/11/05 10:25:19;;;;;;;10.75;6.63;;;;;;;10.11;86.20;101732.00;5113106;28;20020;-52
2022/11/05 10:27:55;;;;;;;9.82;6.88;;;;;;;10.10;86.37;101731.13;5094085;28;20613;-51
2022/11/05 10:30:21;;;;;;;9.77;6.82;;;;;;;10.08;86.02;101737.50;5105389;28;20392;-54
2022/11/05 10:32:47;;;;;;;12.52;6.90;;;;;;;10.04;85.16;101739.47;5111044;28;20890;-52
2022/11/05 10:35:17;;;;;;;14.93;6.88;;;;;;;10.03;85.57;101740.44;5110963;28;20538;-53
2022/11/05 10:37:45;;;;;;;10.30;6.90;;;;;;;10.00;85.21;101743.25;5109641;28;20498;-54
2022/11/05 10:40:32;;;;;;;14.02;6.90;;;;;;;10.05;87.29;101743.00;5108448;28;20436;-53
2022/11/05 10:43:12;;;;;;;11.25;7.15;;;;;;;10.05;85.70;101741.19;5111456;28;20027;-54
2022/11/05 10:45:51;;;;;;;;;;;;;;;10.13;88.43;101728.31;5112266;28;20501;-54
2022/11/05 10:48:51;;;;;;;14.98;7.22;;;;;;;10.13;86.77;101730.13;5111059;28;19958;-54
2022/11/05 10:51:17;;;;;;;13.10;7.45;;;;;;;10.11;85.35;101729.38;5111444;28;20075;-52
2022/11/05 10:53:52;;;;;;;13.60;6.90;;;;;;;10.13;85.88;101717.69;5112227;28;20050;-53
2022/11/05 10:56:30;;;;;;;14.27;7.47;;;;;;;10.13;86.27;101717.69;5112176;28;20034;-55
2022/11/05 10:58:58;;;;;;;14.13;7.40;;;;;;;10.16;86.35;101721.97;5111747;28;20028;-53
2022/11/05 11:01:25;;;;;;;10.70;7.32;;;;;;;10.18;85.84;101728.03;5111496;28;20399;-53
2022/11/05 11:04:03;;;;;;;10.98;8.00;;;;;;;10.15;85.29;101717.59;5112007;28;20111;-54
2022/11/05 11:06:31;;;;;;;14.10;7.57;;;;;;;10.21;85.63;101729.63;5112142;28;20023;-54
2022/11/05 11:09:00;;;;;;;13.90;8.20;;;;;;;10.22;85.27;101723.38;5110764;28;20027;-53
2022/11/05 11:11:40;;;;;;;11.80;7.32;;;;;;;10.24;85.51;101729.44;5111404;28;20473;-54
2022/11/05 11:14:17;;;;;;;11.93;8.10;;;;;;;10.29;86.04;101730.03;5110445;28;20060;-54
2022/11/05 11:16:45;;;;;;;16.77;8.27;;;;;;;10.31;84.39;101722.84;5106552;28;20027;-53
2022/11/05 11:19:19;;;;;;;12.10;7.88;;;;;;;10.36;85.36;101723.44;5111095;28;20053;-52
2022/11/05 11:21:44;;;;;;;10.55;7.38;;;;;;;10.44;84.76;101721.16;5110320;28;20073;-52
2022/11/05 11:24:21;;;;;;;12.82;7.22;;;;;;;10.48;85.61;101706.72;5111105;28;20032;-54
2022/11/05 11:26:47;;;;;;;11.77;7.10;;;;;;;10.58;82.21;101704.34;5109835;28;20024;-52
2022/11/05 11:29:23;;;;;;;12.75;6.82;;;;;;;10.62;82.12;101705.00;5104688;28;20460;-54
2022/11/05 11:31:56;;;;;;;11.45;6.68;;;;;;;10.77;82.92;101708.50;5107583;28;20053;-54
2022/11/05 11:34:35;;;;;;;10.73;6.45;;;;;;;10.90;83.75;101702.28;5104734;28;20062;-54
2022/11/05 11:37:08;;;;;;;16.80;7.85;;;;;;;10.99;82.69;101707.97;5110063;28;20032;-54
2022/11/05 11:39:33;;;;;;;11.15;6.55;;;;;;;11.01;79.55;101712.25;5109797;28;20097;-53
2022/11/05 11:42:05;;;;;;;10.45;6.22;;;;;;;11.02;79.38;101705.13;5112498;28;20027;-54
2022/11/05 11:44:41;;;;;;;8.73;5.55;;;;;;;11.03;79.78;101710.34;5110544;28;20040;-53
2022/11/05 11:47:13;;;;;;;13.95;6.70;;;;;;;11.08;80.62;101704.72;5110546;28;20028;-53
2022/11/05 11:49:44;;;;;;;12.40;6.57;;;;;;;11.16;81.03;101712.19;5107566;28;20088;-53
2022/11/05 11:52:13;;;;;;;10.77;6.38;;;;;;;11.13;78.96;101705.28;5110510;28;20051;-55
2022/11/05 11:54:38;;;;;;;12.00;5.95;;;;;;;11.14;78.48;101708.78;5109815;28;20494;-53
2022/11/05 11:57:23;;;;;;;11.73;5.68;;;;;;;11.14;78.27;101703.47;5111121;28;20020;-55
2022/11/05 11:59:48;;;;;;;12.25;6.43;;;;;;;11.10;78.01;101708.13;5107302;28;20073;-54
2022/11/05 12:02:38;;;;;;;8.48;5.40;;;;;;;11.09;77.62;101701.97;5110083;28;20081;-55
2022/11/05 12:05:29;;;;;;;13.32;5.18;;;;;;;11.08;77.56;101689.63;5108956;28;20048;-54
2022/11/05 12:08:02;;;;;;;12.57;5.45;;;;;;;11.11;78.72;101693.91;5111012;27;20387;-54
2022/11/05 12:10:35;;;;;;;12.25;5.20;;;;;;;11.18;78.67;101689.88;5092179;28;20032;-54
2022/11/05 12:13:19;;;;;;;10.20;5.13;;;;;;;11.28;79.26;101692.78;5107298;28;20035;-54
2022/11/05 12:15:55;;;;;;;14.65;5.65;;;;;;;11.30;77.68;101699.69;5109071;28;20043;-54